Bourdon, Quebec

3:32 AM EDT on May 29, 2017 (GMT -0400)
Chez Plam | | Change Station

Elev 50 ft 49.22 °N, 68.14 °W | Updated 19 seconds ago

Clear
Clear
47.3 °F
Feels Like 43 °F
N
10.5
Wind Variable Wind from ESE
Gusts 12.3 mph

Today
High -- | Low -- °F
--% Chance of Precip.
Yesterday
High -- | Low -- °F
Precip. -- in
Pressure 30.14 in
Visibility 9.0 miles
Clouds Mostly Cloudy 4500 ft
Windchill 43 °F
Dew Point 39 °F
Humidity 74%
Rainfall 0.00 in
Snow Depth Not available.
4:32 AM 8:26 PM
Waxing Crescent, 17% visible
METAR CYBC 290700Z AUTO 08012G17KT 9SM BKN045 08/04 A3013 RMK SLP205
Pressure 30.14 in
Visibility 9.0 miles
Clouds Mostly Cloudy 4500 ft
Windchill 43 °F
Dew Point 39 °F
Humidity 74%
Rainfall 0.00 in
Snow Depth Not available.
4:32 AM 8:26 PM
Waxing Crescent, 17% visible
METAR CYBC 290700Z AUTO 08012G17KT 9SM BKN045 08/04 A3013 RMK SLP205

Get Severe Weather Alerts

Thanks for signing up!

Be on the lookout for a verification email in your inbox.

You'll start receiving the daily forecast at 6 AM.

×

10-Day Weather Forecast

Almanac

Astronomy

May. 29, 2017 Rise Set
Actual Time
Civil Twilight
Nautical Twilight
Astronomical Twilight
Moon
Length of Visible Light
Length of Day
Tomorrow will be .
, % of the Moon is Illuminated

Today's Extremes

Country Highs Country Lows

Community

WunderPhotos

Category 6

Welcome to Category 6. This is the collective home for Weather Underground's featured writeups by Dr. Jeff Masters (right), Bob Henson (left), Chris Burt, and other regular contributors.

Nearby

Air Quality

  Air Quality AQ Index Pollutant
Not available.

Snow Depth

Station Depth Elevation

Earthquake Activity

City Distance Mag. Time & Date
Minimum magnitude displayed is 2.5.

Coastal Water Temperatures

Place Temperature

Stations

Nearby Weather Stations

Station Location Temp. Windchill Dew Point Humidity Wind Precip. Elev Updated Type
                   

Watches & Warnings

There are currently no watches in effect.